createdAt,value
2022-07-25T00:00:15.602Z,9.40
2022-07-25T00:01:16.588Z,9.60
2022-07-25T00:02:17.351Z,9.70
2022-07-25T00:03:18.518Z,9.20
2022-07-25T00:04:19.115Z,8.90
2022-07-25T00:05:19.533Z,9.10
2022-07-25T00:06:20.407Z,8.80
2022-07-25T00:07:21.290Z,8.10
2022-07-25T00:08:22.168Z,8.50
2022-07-25T00:09:23.049Z,8.00
2022-07-25T00:10:23.944Z,10.20
2022-07-25T00:11:24.824Z,10.00
2022-07-25T00:12:25.710Z,9.00
2022-07-25T00:13:26.589Z,9.20
2022-07-25T00:14:27.489Z,8.90
2022-07-25T00:15:28.386Z,8.50
2022-07-25T00:16:29.329Z,9.90
2022-07-25T00:17:30.200Z,9.50
2022-07-25T00:18:31.081Z,10.30
2022-07-25T00:19:31.979Z,9.20
2022-07-25T00:20:32.861Z,10.80
2022-07-25T00:21:33.744Z,9.30
2022-07-25T00:22:34.616Z,11.90
2022-07-25T00:23:35.498Z,9.60
2022-07-25T00:24:36.391Z,9.50
2022-07-25T00:25:37.276Z,8.90
2022-07-25T00:26:40.398Z,9.50
2022-07-25T00:27:38.989Z,10.90
2022-07-25T00:28:39.872Z,9.10
2022-07-25T00:29:40.764Z,10.80
2022-07-25T00:30:41.645Z,10.00
2022-07-25T00:31:42.575Z,11.30
2022-07-25T00:32:43.429Z,12.40
2022-07-25T00:33:44.305Z,9.80
2022-07-25T00:34:45.195Z,8.80
2022-07-25T00:35:46.069Z,8.00
2022-07-25T00:36:46.950Z,9.60
2022-07-25T00:37:47.822Z,8.90
2022-07-25T00:38:48.706Z,9.60
2022-07-25T00:39:49.586Z,10.30
2022-07-25T00:40:53.570Z,10.40
2022-07-25T00:41:52.233Z,8.70
2022-07-25T00:42:52.114Z,9.00
2022-07-25T00:43:52.997Z,12.00
2022-07-25T00:44:53.901Z,11.80
2022-07-25T00:45:54.909Z,8.40
2022-07-25T00:46:55.762Z,11.20
2022-07-25T00:47:56.196Z,11.50
2022-07-25T00:48:57.152Z,10.40
2022-07-25T00:49:57.683Z,12.60
2022-07-25T00:50:58.561Z,10.70
2022-07-25T00:51:59.438Z,9.90
2022-07-25T00:53:00.319Z,12.20
2022-07-25T00:54:01.194Z,10.90
2022-07-25T00:55:02.082Z,11.00
2022-07-25T00:56:02.955Z,9.20
2022-07-25T00:57:03.835Z,12.50
2022-07-25T00:58:04.722Z,12.40
2022-07-25T00:59:05.599Z,10.10
2022-07-25T01:00:06.485Z,10.70
2022-07-25T01:01:07.455Z,9.40
2022-07-25T01:02:08.454Z,9.40
2022-07-25T01:03:09.345Z,11.20
2022-07-25T01:04:10.209Z,11.20
2022-07-25T01:05:11.096Z,10.60
2022-07-25T01:06:11.969Z,8.90
2022-07-25T01:07:12.849Z,9.30
2022-07-25T01:08:13.739Z,8.80
2022-07-25T01:09:14.613Z,10.20
2022-07-25T01:10:15.509Z,9.70
2022-07-25T01:11:16.388Z,10.00
2022-07-25T01:12:17.261Z,9.80
2022-07-25T01:13:18.146Z,9.30
2022-07-25T01:14:18.726Z,9.40
2022-07-25T01:15:19.618Z,9.90
2022-07-25T01:16:20.575Z,10.30
2022-07-25T01:17:21.421Z,9.20
2022-07-25T01:18:22.306Z,8.20
2022-07-25T01:19:23.189Z,9.20
2022-07-25T01:20:24.068Z,11.30
2022-07-25T01:21:24.947Z,10.10
2022-07-25T01:22:25.820Z,9.10
2022-07-25T01:23:26.704Z,11.90
2022-07-25T01:24:27.576Z,9.30
2022-07-25T01:25:28.468Z,12.00
2022-07-25T01:26:29.339Z,12.50
2022-07-25T01:27:30.222Z,10.50
2022-07-25T01:28:31.105Z,10.90
2022-07-25T01:29:31.986Z,9.20
2022-07-25T01:30:32.866Z,10.20
2022-07-25T01:31:33.864Z,9.80
2022-07-25T01:32:34.260Z,9.30
2022-07-25T01:33:35.151Z,10.70
2022-07-25T01:34:36.015Z,10.60
2022-07-25T01:35:41.488Z,10.30
2022-07-25T01:36:38.675Z,12.80
2022-07-25T01:37:38.558Z,10.10
2022-07-25T01:38:39.439Z,9.70
2022-07-25T01:39:40.321Z,11.20
2022-07-25T01:40:41.205Z,9.30
2022-07-25T01:41:42.085Z,9.60
2022-07-25T01:42:42.972Z,9.90
2022-07-25T01:43:43.849Z,10.70
2022-07-25T01:44:44.734Z,10.80
2022-07-25T01:45:45.623Z,9.90
2022-07-25T01:46:46.567Z,10.70
2022-07-25T01:47:47.448Z,9.60
2022-07-25T01:48:48.373Z,11.40
2022-07-25T01:49:49.214Z,10.00
2022-07-25T01:50:50.096Z,9.60
2022-07-25T01:51:50.976Z,10.90
2022-07-25T01:52:51.861Z,9.60
2022-07-25T01:53:52.746Z,9.90
2022-07-25T01:54:53.555Z,11.30
2022-07-25T01:55:54.445Z,11.20
2022-07-25T01:56:54.696Z,11.10
2022-07-25T01:57:55.558Z,9.70
2022-07-25T01:58:56.103Z,9.60
2022-07-25T01:59:56.984Z,9.10
2022-07-25T02:00:57.898Z,10.40
2022-07-25T02:01:58.808Z,10.50
2022-07-25T02:02:59.657Z,10.30
2022-07-25T02:04:00.706Z,10.70
2022-07-25T02:05:01.143Z,11.20
2022-07-25T02:06:01.992Z,10.00
2022-07-25T02:07:02.875Z,10.30
2022-07-25T02:08:03.757Z,9.60
2022-07-25T02:09:04.631Z,9.20
2022-07-25T02:10:05.512Z,9.50
2022-07-25T02:11:06.404Z,9.40
2022-07-25T02:12:07.289Z,9.90
2022-07-25T02:13:08.170Z,8.80
2022-07-25T02:14:09.298Z,10.40
2022-07-25T02:15:09.858Z,9.20
2022-07-25T02:16:10.749Z,10.90
2022-07-25T02:17:11.671Z,9.90
2022-07-25T02:18:12.514Z,10.70
2022-07-25T02:19:13.397Z,9.50
2022-07-25T02:20:14.269Z,10.00
2022-07-25T02:21:15.171Z,9.60
2022-07-25T02:22:16.041Z,9.40
2022-07-25T02:23:16.915Z,12.20
2022-07-25T02:24:17.797Z,11.40
2022-07-25T02:25:18.672Z,8.50
2022-07-25T02:26:19.561Z,9.30
2022-07-25T02:27:20.434Z,11.20
2022-07-25T02:28:21.313Z,10.90
2022-07-25T02:29:22.365Z,9.80
2022-07-25T02:30:23.119Z,12.50
2022-07-25T02:31:24.089Z,10.20
2022-07-25T02:32:24.961Z,11.50
2022-07-25T02:33:25.835Z,10.80
2022-07-25T02:34:26.714Z,11.50
2022-07-25T02:35:27.591Z,9.90
2022-07-25T02:36:28.477Z,10.50
2022-07-25T02:37:29.350Z,10.50
2022-07-25T02:38:30.028Z,9.40
2022-07-25T02:39:30.906Z,11.00
2022-07-25T02:40:31.786Z,9.30
2022-07-25T02:41:32.666Z,11.10
2022-07-25T02:42:33.549Z,10.00
2022-07-25T02:43:34.421Z,9.20
2022-07-25T02:44:35.302Z,10.90
2022-07-25T02:45:36.213Z,12.20
2022-07-25T02:46:37.207Z,9.30
2022-07-25T02:47:37.587Z,9.70
2022-07-25T02:48:38.516Z,11.90
2022-07-25T02:49:39.344Z,12.50
2022-07-25T02:50:40.226Z,9.10
2022-07-25T02:51:41.109Z,10.30
2022-07-25T02:52:41.992Z,9.60
2022-07-25T02:53:58.654Z,11.20
2022-07-25T02:54:44.629Z,9.30
2022-07-25T02:55:44.513Z,10.40
2022-07-25T02:56:45.203Z,10.30
2022-07-25T02:57:46.089Z,9.40
2022-07-25T02:58:46.959Z,10.10
2022-07-25T02:59:47.839Z,10.90
2022-07-25T03:00:48.803Z,10.80
2022-07-25T03:01:49.693Z,10.30
2022-07-25T03:02:50.523Z,14.00
2022-07-25T03:03:51.443Z,9.10
2022-07-25T03:04:52.297Z,9.20
2022-07-25T03:05:53.172Z,11.60
2022-07-25T03:06:54.064Z,10.10
2022-07-25T03:07:54.951Z,11.00
2022-07-25T03:08:55.826Z,11.20
2022-07-25T03:09:56.710Z,9.70
2022-07-25T03:10:57.595Z,10.80
2022-07-25T03:11:58.472Z,10.10
2022-07-25T03:12:59.355Z,9.90
2022-07-25T03:14:00.226Z,13.50
2022-07-25T03:15:01.108Z,10.30
2022-07-25T03:16:01.991Z,11.40
2022-07-25T03:17:02.962Z,11.60
2022-07-25T03:18:03.755Z,10.60
2022-07-25T03:19:04.634Z,12.80
2022-07-25T03:20:05.511Z,8.60
2022-07-25T03:21:06.389Z,9.30
2022-07-25T03:22:07.287Z,10.70
2022-07-25T03:23:08.122Z,8.30
2022-07-25T03:24:09.325Z,9.70
2022-07-25T03:25:15.850Z,9.70
2022-07-25T03:26:11.580Z,9.30
2022-07-25T03:27:11.470Z,9.30
2022-07-25T03:28:12.353Z,9.50
2022-07-25T03:29:13.239Z,9.20
2022-07-25T03:30:14.109Z,9.70
2022-07-25T03:31:15.165Z,9.60
2022-07-25T03:32:15.588Z,11.60
2022-07-25T03:33:16.430Z,9.60
2022-07-25T03:34:16.920Z,12.60
2022-07-25T03:35:17.750Z,10.20
2022-07-25T03:36:18.577Z,11.10
2022-07-25T03:37:19.416Z,12.30
2022-07-25T03:38:20.243Z,10.20
2022-07-25T03:39:21.074Z,10.30
2022-07-25T03:40:21.892Z,10.70
2022-07-25T03:41:22.717Z,9.70
2022-07-25T03:42:26.643Z,10.10
2022-07-25T03:43:24.154Z,9.60
2022-07-25T03:44:24.987Z,9.40
2022-07-25T03:45:25.851Z,10.00
2022-07-25T03:46:26.758Z,11.80
2022-07-25T03:47:27.575Z,13.50
2022-07-25T03:48:28.407Z,11.00
2022-07-25T03:49:29.222Z,9.30
2022-07-25T03:50:30.045Z,11.40
2022-07-25T03:51:30.873Z,9.80
2022-07-25T03:52:31.698Z,9.00
2022-07-25T03:53:32.525Z,8.70
2022-07-25T03:54:33.345Z,11.30
2022-07-25T03:55:34.172Z,13.20
2022-07-25T03:56:34.993Z,9.60
2022-07-25T03:57:35.620Z,16.10
2022-07-25T03:58:36.439Z,9.40
2022-07-25T03:59:37.273Z,11.70
2022-07-25T04:00:38.095Z,10.00
2022-07-25T04:01:39.000Z,10.00
2022-07-25T04:02:39.858Z,10.80
2022-07-25T04:03:40.661Z,11.00
2022-07-25T04:04:41.222Z,10.50
2022-07-25T04:05:47.030Z,10.90
2022-07-25T04:06:43.764Z,9.20
2022-07-25T04:07:43.602Z,10.40
2022-07-25T04:08:44.433Z,9.70
2022-07-25T04:09:45.259Z,10.70
2022-07-25T04:10:46.079Z,11.30
2022-07-25T04:11:46.905Z,14.60
2022-07-25T04:12:47.746Z,10.80
2022-07-25T04:13:48.578Z,11.70
2022-07-25T04:14:49.390Z,9.90
2022-07-25T04:15:50.221Z,9.10
2022-07-25T04:16:51.279Z,9.80
2022-07-25T04:17:52.065Z,11.30
2022-07-25T04:18:52.887Z,9.60
2022-07-25T04:19:53.455Z,9.70
2022-07-25T04:20:54.423Z,11.80
2022-07-25T04:21:55.248Z,11.20
2022-07-25T04:22:56.104Z,10.20
2022-07-25T04:23:56.920Z,11.70
2022-07-25T04:24:57.739Z,10.80
2022-07-25T04:25:58.565Z,10.60
2022-07-25T04:26:59.384Z,10.20
2022-07-25T04:28:00.222Z,13.30
2022-07-25T04:29:01.052Z,12.80
2022-07-25T04:30:01.882Z,10.20
2022-07-25T04:31:02.698Z,14.40
2022-07-25T04:32:03.630Z,10.10
2022-07-25T04:33:04.437Z,11.80
2022-07-25T04:34:05.599Z,10.30
2022-07-25T04:35:06.039Z,10.80
2022-07-25T04:36:06.861Z,12.80
2022-07-25T04:37:07.365Z,11.00
2022-07-25T04:38:11.996Z,10.30
2022-07-25T04:39:09.102Z,10.30
2022-07-25T04:40:09.933Z,11.60
2022-07-25T04:41:10.758Z,9.90
2022-07-25T04:42:11.635Z,11.80
2022-07-25T04:43:12.414Z,10.00
2022-07-25T04:44:13.232Z,12.60
2022-07-25T04:45:14.065Z,10.70
2022-07-25T04:46:14.667Z,9.40
2022-07-25T04:47:15.459Z,11.40
2022-07-25T04:48:16.288Z,10.50
2022-07-25T04:49:17.267Z,9.90
2022-07-25T04:50:21.744Z,12.10
2022-07-25T04:51:19.328Z,9.90
2022-07-25T04:52:19.157Z,11.00
2022-07-25T04:53:20.002Z,11.10
2022-07-25T04:54:20.822Z,10.70
2022-07-25T04:55:21.650Z,10.20
2022-07-25T04:56:22.468Z,9.60
2022-07-25T04:57:23.296Z,10.70
2022-07-25T04:58:24.128Z,10.20
2022-07-25T04:59:24.952Z,12.10
2022-07-25T05:00:25.782Z,10.60
2022-07-25T05:01:26.650Z,13.00
2022-07-25T05:02:27.539Z,10.20
2022-07-25T05:03:28.365Z,9.40
2022-07-25T05:04:29.185Z,10.60
2022-07-25T05:05:30.016Z,10.30
2022-07-25T05:06:30.831Z,11.70
2022-07-25T05:07:31.659Z,10.30
2022-07-25T05:08:32.491Z,11.80
2022-07-25T05:09:33.449Z,10.00
2022-07-25T05:10:34.245Z,10.00
2022-07-25T05:11:35.032Z,10.70
2022-07-25T05:12:36.029Z,9.20
2022-07-25T05:13:36.837Z,11.10
2022-07-25T05:14:37.647Z,11.80
2022-07-25T05:15:38.513Z,10.90
2022-07-25T05:16:39.367Z,10.40
2022-07-25T05:17:40.215Z,12.50
2022-07-25T05:18:41.046Z,10.50
2022-07-25T05:19:41.872Z,9.60
2022-07-25T05:20:42.717Z,13.80
2022-07-25T05:21:43.521Z,10.70
2022-07-25T05:22:44.365Z,10.10
2022-07-25T05:23:45.179Z,9.20
2022-07-25T05:24:46.001Z,11.20
2022-07-25T05:25:46.827Z,9.20
2022-07-25T05:26:47.663Z,9.30
2022-07-25T05:27:48.477Z,11.00
2022-07-25T05:28:49.303Z,13.60
2022-07-25T05:29:50.132Z,11.10
2022-07-25T05:30:50.952Z,11.00
2022-07-25T05:31:51.798Z,11.00
2022-07-25T05:32:52.608Z,9.80
2022-07-25T05:33:53.436Z,10.80
2022-07-25T05:34:54.257Z,12.10
2022-07-25T05:35:55.084Z,9.30
2022-07-25T05:36:55.904Z,12.00
2022-07-25T05:37:56.731Z,11.60
2022-07-25T05:38:57.593Z,11.70
2022-07-25T05:39:58.397Z,10.20
2022-07-25T05:40:59.231Z,9.70
2022-07-25T05:42:00.064Z,10.70
2022-07-25T05:43:03.183Z,10.00
2022-07-25T05:44:01.382Z,9.10
2022-07-25T05:45:02.319Z,11.70
2022-07-25T05:46:03.102Z,10.20
2022-07-25T05:47:03.981Z,9.30
2022-07-25T05:48:04.781Z,11.60
2022-07-25T05:49:05.689Z,11.00
2022-07-25T05:50:06.487Z,10.80
2022-07-25T05:51:07.318Z,10.10
2022-07-25T05:52:12.552Z,11.90
2022-07-25T05:53:09.857Z,11.00
2022-07-25T05:54:10.217Z,9.30
2022-07-25T05:55:10.587Z,10.20
2022-07-25T05:56:11.414Z,10.60
2022-07-25T05:57:12.245Z,10.00
2022-07-25T05:58:13.065Z,10.20
2022-07-25T05:59:13.893Z,8.80
2022-07-25T06:00:14.723Z,8.90
2022-07-25T06:01:15.542Z,9.70
2022-07-25T06:02:16.560Z,12.30
2022-07-25T06:03:16.985Z,12.70
2022-07-25T06:04:17.829Z,14.30
2022-07-25T06:05:18.648Z,12.20
2022-07-25T06:06:19.474Z,12.20
2022-07-25T06:07:20.293Z,10.90
2022-07-25T06:08:21.122Z,9.40
2022-07-25T06:09:21.889Z,12.70
2022-07-25T06:10:22.726Z,8.80
2022-07-25T06:11:23.542Z,9.80
2022-07-25T06:12:24.385Z,13.40
2022-07-25T06:13:24.779Z,11.00
2022-07-25T06:14:25.751Z,9.10
2022-07-25T06:15:27.592Z,10.30
2022-07-25T06:16:27.541Z,10.30
2022-07-25T06:17:32.340Z,10.40
2022-07-25T06:18:29.315Z,9.30
2022-07-25T06:19:30.174Z,10.00
2022-07-25T06:20:31.003Z,9.70
2022-07-25T06:21:31.822Z,9.00
2022-07-25T06:22:32.658Z,10.10
2022-07-25T06:23:33.481Z,10.00
2022-07-25T06:24:34.323Z,9.60
2022-07-25T06:25:35.147Z,10.90
2022-07-25T06:26:35.972Z,9.70
2022-07-25T06:27:36.790Z,9.90
2022-07-25T06:28:37.656Z,10.30
2022-07-25T06:29:38.460Z,9.20
2022-07-25T06:30:39.286Z,9.50
2022-07-25T06:31:40.212Z,10.20
2022-07-25T06:32:40.674Z,10.20
2022-07-25T06:33:41.494Z,10.70
2022-07-25T06:34:42.331Z,9.90
2022-07-25T06:35:43.151Z,9.20
2022-07-25T06:36:43.977Z,10.30
2022-07-25T06:37:44.794Z,10.40
2022-07-25T06:38:45.675Z,11.70
2022-07-25T06:39:46.484Z,8.80
2022-07-25T06:40:47.360Z,10.20
2022-07-25T06:41:48.175Z,9.40
2022-07-25T06:42:48.986Z,9.30
2022-07-25T06:43:49.815Z,10.70
2022-07-25T06:44:50.639Z,8.80
2022-07-25T06:45:51.458Z,12.80
2022-07-25T06:46:52.338Z,9.70
2022-07-25T06:47:53.125Z,9.30
2022-07-25T06:48:54.045Z,10.10
2022-07-25T06:49:54.841Z,10.80
2022-07-25T06:50:55.670Z,9.60
2022-07-25T06:51:56.488Z,13.30
2022-07-25T06:52:57.318Z,9.80
2022-07-25T06:53:58.144Z,8.90
2022-07-25T06:54:58.982Z,9.70
2022-07-25T06:55:59.812Z,11.80
2022-07-25T06:57:00.640Z,9.90
2022-07-25T06:58:01.459Z,11.00
2022-07-25T06:59:02.285Z,11.20
2022-07-25T07:00:03.117Z,9.80
2022-07-25T07:01:04.035Z,9.60
2022-07-25T07:02:04.826Z,11.50
2022-07-25T07:03:05.707Z,10.00
2022-07-25T07:04:06.887Z,10.40
2022-07-25T07:05:07.391Z,10.40
2022-07-25T07:06:08.220Z,9.20
2022-07-25T07:07:09.051Z,8.90
2022-07-25T07:08:09.867Z,8.90
2022-07-25T07:09:10.695Z,8.70
2022-07-25T07:10:11.533Z,9.50
2022-07-25T07:11:12.359Z,11.60
2022-07-25T07:12:13.190Z,11.60
2022-07-25T07:13:14.015Z,9.20
2022-07-25T07:14:14.847Z,11.00
2022-07-25T07:15:15.685Z,8.80
2022-07-25T07:16:16.636Z,11.10
2022-07-25T07:17:17.436Z,9.20
2022-07-25T07:18:18.256Z,11.60
2022-07-25T07:19:19.083Z,9.30
2022-07-25T07:20:19.910Z,11.00
2022-07-25T07:21:21.498Z,10.60
2022-07-25T07:22:21.458Z,10.00
2022-07-25T07:23:22.315Z,10.60
2022-07-25T07:24:24.116Z,9.30
2022-07-25T07:25:23.563Z,9.30
2022-07-25T07:26:24.392Z,7.80
2022-07-25T07:27:25.220Z,14.50
2022-07-25T07:28:26.040Z,8.90
2022-07-25T07:29:26.868Z,9.50
2022-07-25T07:30:58.700Z,9.10
2022-07-25T07:31:29.448Z,9.90
2022-07-25T07:32:29.234Z,9.60
2022-07-25T07:33:30.060Z,8.80
2022-07-25T07:34:30.887Z,12.00
2022-07-25T07:35:35.980Z,10.30
2022-07-25T07:36:32.385Z,10.80
2022-07-25T07:37:37.567Z,11.80
2022-07-25T07:38:34.932Z,7.60
2022-07-25T07:39:34.764Z,8.00
2022-07-25T07:40:35.602Z,10.60
2022-07-25T07:41:36.421Z,8.80
2022-07-25T07:42:37.240Z,8.00
2022-07-25T07:43:38.071Z,10.20
2022-07-25T07:44:38.609Z,8.30
2022-07-25T07:45:39.449Z,8.60
2022-07-25T07:46:40.345Z,10.10
2022-07-25T07:47:41.125Z,8.50
2022-07-25T07:48:41.983Z,8.30
2022-07-25T07:49:45.907Z,9.10
2022-07-25T07:50:44.522Z,9.50
2022-07-25T07:51:44.159Z,8.60
2022-07-25T07:52:44.981Z,8.10
2022-07-25T07:53:45.809Z,8.10
2022-07-25T07:54:46.637Z,7.70
2022-07-25T07:55:47.475Z,8.70
2022-07-25T07:56:48.304Z,8.60
2022-07-25T07:57:49.133Z,7.10
2022-07-25T07:58:49.954Z,9.30
2022-07-25T07:59:50.782Z,9.60
2022-07-25T08:00:51.635Z,10.60
2022-07-25T08:01:52.530Z,8.80
2022-07-25T08:02:53.430Z,8.00
2022-07-25T08:03:54.249Z,8.00
2022-07-25T08:04:55.094Z,8.80
2022-07-25T08:05:55.934Z,8.90
2022-07-25T08:06:56.759Z,8.30
2022-07-25T08:07:57.591Z,7.70
2022-07-25T08:08:58.409Z,9.90
2022-07-25T08:09:59.238Z,9.20
2022-07-25T08:11:00.090Z,9.40
2022-07-25T08:12:00.895Z,8.30
2022-07-25T08:13:01.718Z,7.50
2022-07-25T08:14:02.675Z,8.50
2022-07-25T08:15:03.053Z,9.80
2022-07-25T08:16:04.060Z,9.10
2022-07-25T08:17:04.370Z,10.70
2022-07-25T08:18:04.949Z,7.20
2022-07-25T08:19:06.665Z,11.20
2022-07-25T08:20:27.906Z,7.00
2022-07-25T08:21:08.215Z,8.10
2022-07-25T08:22:08.044Z,8.20
2022-07-25T08:23:08.861Z,9.40
2022-07-25T08:24:10.139Z,7.50
2022-07-25T08:25:10.591Z,7.90
2022-07-25T08:26:11.427Z,8.70
2022-07-25T08:27:12.250Z,9.00
2022-07-25T08:28:13.082Z,8.10
2022-07-25T08:29:25.029Z,7.10
2022-07-25T08:30:15.612Z,8.60
2022-07-25T08:31:15.525Z,9.20
2022-07-25T08:32:16.367Z,8.50
2022-07-25T08:33:17.199Z,9.10
2022-07-25T08:34:18.034Z,7.10
2022-07-25T08:35:18.854Z,11.00
2022-07-25T08:36:19.707Z,9.30
2022-07-25T08:37:20.527Z,7.50
2022-07-25T08:38:21.357Z,7.90
2022-07-25T08:39:22.177Z,7.50
2022-07-25T08:40:23.006Z,7.70
2022-07-25T08:41:24.793Z,7.20
2022-07-25T08:42:24.712Z,8.10
2022-07-25T08:43:25.544Z,10.10
2022-07-25T08:44:26.368Z,9.00
2022-07-25T08:45:27.198Z,7.20
2022-07-25T08:46:28.100Z,6.40
2022-07-25T08:47:28.878Z,7.00
2022-07-25T08:48:29.764Z,7.40
2022-07-25T08:49:30.603Z,8.60
2022-07-25T08:50:31.434Z,6.60
2022-07-25T08:51:32.256Z,6.90
2022-07-25T08:52:33.084Z,7.40
2022-07-25T08:53:35.064Z,7.00
2022-07-25T08:54:34.771Z,10.30
2022-07-25T08:55:35.480Z,6.10
2022-07-25T08:56:36.300Z,7.00
2022-07-25T08:57:37.128Z,7.40
2022-07-25T08:58:37.948Z,7.70
2022-07-25T08:59:38.776Z,6.30
2022-07-25T09:00:39.609Z,8.10
2022-07-25T09:01:40.496Z,7.10
2022-07-25T09:02:41.326Z,7.70
2022-07-25T09:03:42.112Z,10.30
2022-07-25T09:04:42.948Z,6.20
2022-07-25T09:05:43.781Z,13.20
2022-07-25T09:06:44.613Z,9.60
2022-07-25T09:07:45.593Z,6.90
2022-07-25T09:08:46.421Z,6.80
2022-07-25T09:09:47.258Z,9.50
2022-07-25T09:10:48.101Z,7.20
2022-07-25T09:11:48.927Z,8.20
2022-07-25T09:12:49.755Z,8.50
2022-07-25T09:13:50.583Z,8.50
2022-07-25T09:14:51.403Z,6.40
2022-07-25T09:15:52.296Z,7.20
2022-07-25T09:16:53.211Z,10.10
2022-07-25T09:17:54.087Z,7.80
2022-07-25T09:18:54.900Z,7.40
2022-07-25T09:19:55.731Z,6.20
2022-07-25T09:20:56.592Z,6.30
2022-07-25T09:21:57.414Z,7.80
2022-07-25T09:22:57.936Z,6.40
2022-07-25T09:23:58.763Z,6.10
2022-07-25T09:24:59.593Z,6.30
2022-07-25T09:26:00.447Z,6.60
2022-07-25T09:27:01.266Z,5.70
2022-07-25T09:28:02.105Z,6.80
2022-07-25T09:29:02.932Z,5.40
2022-07-25T09:30:03.760Z,6.00
2022-07-25T09:31:04.708Z,5.80
2022-07-25T09:32:05.530Z,7.50
2022-07-25T09:33:06.353Z,8.30
2022-07-25T09:34:07.699Z,6.10
2022-07-25T09:35:07.723Z,5.50
2022-07-25T09:36:08.563Z,5.00
2022-07-25T09:37:09.397Z,6.20
2022-07-25T09:38:10.237Z,6.20
2022-07-25T09:39:11.053Z,7.00
2022-07-25T09:40:11.883Z,7.60
2022-07-25T09:41:12.725Z,5.10
2022-07-25T09:42:13.551Z,9.10
2022-07-25T09:43:14.376Z,6.70
2022-07-25T09:44:15.209Z,6.60
2022-07-25T09:45:16.035Z,7.30
2022-07-25T09:46:16.983Z,7.90
2022-07-25T09:47:17.831Z,6.90
2022-07-25T09:48:18.661Z,6.10
2022-07-25T09:49:19.489Z,6.00
2022-07-25T09:50:20.311Z,6.30
2022-07-25T09:51:21.148Z,6.90
2022-07-25T09:52:22.026Z,6.40
2022-07-25T09:53:22.847Z,7.80
2022-07-25T09:54:23.675Z,6.30
2022-07-25T09:55:24.512Z,7.10
2022-07-25T09:56:25.347Z,8.40
2022-07-25T09:57:26.172Z,6.10
2022-07-25T09:58:27.003Z,6.70
2022-07-25T09:59:27.820Z,8.10
2022-07-25T10:00:28.649Z,8.80
2022-07-25T10:01:29.562Z,6.20
2022-07-25T10:02:30.415Z,7.10
2022-07-25T10:03:31.248Z,6.70
2022-07-25T10:04:32.075Z,7.80
2022-07-25T10:05:32.906Z,8.40
2022-07-25T10:06:33.749Z,7.50
2022-07-25T10:07:34.578Z,8.40
2022-07-25T10:08:35.408Z,6.60
2022-07-25T10:09:36.236Z,9.20
2022-07-25T10:10:37.064Z,7.40
2022-07-25T10:11:37.906Z,6.00
2022-07-25T10:12:38.710Z,6.50
2022-07-25T10:13:39.547Z,7.30
2022-07-25T10:14:40.372Z,8.00
2022-07-25T10:15:41.201Z,7.70
2022-07-25T10:16:42.166Z,7.30
2022-07-25T10:17:42.943Z,8.80
2022-07-25T10:18:43.770Z,5.50
2022-07-25T10:19:50.045Z,7.40
2022-07-25T10:20:46.306Z,6.70
2022-07-25T10:21:46.156Z,7.80
2022-07-25T10:22:56.144Z,6.70
2022-07-25T10:23:48.497Z,7.30
2022-07-25T10:24:48.328Z,8.40
2022-07-25T10:25:49.486Z,7.10
2022-07-25T10:26:49.791Z,8.10
2022-07-25T10:27:50.615Z,6.30
2022-07-25T10:28:51.464Z,7.40
2022-07-25T10:29:52.292Z,7.90
2022-07-25T10:30:53.160Z,7.20
2022-07-25T10:31:53.961Z,7.20
2022-07-25T10:32:54.789Z,8.10
2022-07-25T10:33:55.608Z,7.80
2022-07-25T10:34:56.438Z,6.50
2022-07-25T10:35:57.268Z,6.20
2022-07-25T10:36:58.105Z,5.90
2022-07-25T10:37:58.923Z,6.70
2022-07-25T10:38:59.757Z,9.30
2022-07-25T10:40:00.582Z,6.30
2022-07-25T10:41:01.410Z,7.20
2022-07-25T10:42:02.238Z,5.80
2022-07-25T10:43:03.063Z,6.40
2022-07-25T10:44:04.223Z,9.50
2022-07-25T10:45:04.697Z,6.40
2022-07-25T10:46:05.574Z,6.20
2022-07-25T10:47:06.368Z,8.50
2022-07-25T10:48:07.196Z,6.90
2022-07-25T10:49:08.487Z,6.80
2022-07-25T10:50:40.210Z,7.20
2022-07-25T10:51:10.281Z,6.40
2022-07-25T10:52:10.134Z,7.10
2022-07-25T10:53:10.960Z,6.50
2022-07-25T10:54:11.783Z,6.20
2022-07-25T10:55:12.606Z,6.50
2022-07-25T10:56:13.438Z,6.10
2022-07-25T10:57:14.274Z,9.70
2022-07-25T10:58:18.042Z,6.60
2022-07-25T10:59:15.644Z,7.00
2022-07-25T11:00:16.473Z,6.10
2022-07-25T11:01:17.346Z,10.00
2022-07-25T11:02:18.157Z,5.30
2022-07-25T11:03:19.008Z,8.00
2022-07-25T11:04:19.788Z,7.10
2022-07-25T11:05:20.617Z,7.60
2022-07-25T11:06:21.464Z,6.80
2022-07-25T11:07:22.307Z,5.40
2022-07-25T11:08:23.170Z,5.60
2022-07-25T11:09:27.440Z,7.10
2022-07-25T11:10:24.721Z,8.40
2022-07-25T11:11:25.643Z,6.20
2022-07-25T11:12:26.168Z,6.80
2022-07-25T11:13:27.014Z,7.90
2022-07-25T11:14:27.845Z,8.10
2022-07-25T11:15:28.668Z,7.30
2022-07-25T11:16:29.585Z,6.60
2022-07-25T11:17:30.379Z,6.00
2022-07-25T11:18:31.213Z,6.20
2022-07-25T11:19:32.036Z,6.40
2022-07-25T11:20:32.871Z,7.00
2022-07-25T11:21:33.696Z,6.90
2022-07-25T11:22:34.567Z,6.90
2022-07-25T11:23:35.366Z,6.90
2022-07-25T11:24:36.182Z,6.80
2022-07-25T11:25:37.014Z,8.30
2022-07-25T11:26:37.832Z,6.80
2022-07-25T11:27:38.671Z,5.70
2022-07-25T11:28:39.500Z,6.60
2022-07-25T11:29:40.333Z,8.20
2022-07-25T11:30:41.151Z,5.70
2022-07-25T11:31:42.085Z,6.10
2022-07-25T11:32:43.096Z,7.30
2022-07-25T11:33:43.499Z,6.40
2022-07-25T11:34:44.330Z,8.20
2022-07-25T11:35:45.165Z,5.70
2022-07-25T11:36:45.760Z,5.60
2022-07-25T11:37:46.357Z,10.20
2022-07-25T11:38:47.193Z,8.10
2022-07-25T11:39:48.021Z,6.60
2022-07-25T11:40:48.835Z,5.50
2022-07-25T11:41:49.663Z,8.60
2022-07-25T11:42:50.491Z,6.00
2022-07-25T11:43:51.326Z,8.20
2022-07-25T11:44:52.154Z,6.40
2022-07-25T11:45:53.022Z,7.70
2022-07-25T11:46:53.800Z,6.80
2022-07-25T11:47:54.639Z,5.60
2022-07-25T11:48:55.528Z,7.30
2022-07-25T11:49:56.325Z,5.30
2022-07-25T11:50:57.139Z,5.00
2022-07-25T11:51:57.963Z,6.60
2022-07-25T11:52:58.809Z,5.00
2022-07-25T11:53:59.635Z,5.30
2022-07-25T11:55:00.466Z,5.90
2022-07-25T11:56:14.421Z,5.60
2022-07-25T11:57:03.011Z,5.10
2022-07-25T11:58:02.846Z,6.20
2022-07-25T11:59:03.939Z,7.00
2022-07-25T12:00:04.426Z,5.30
2022-07-25T12:01:05.257Z,6.50
2022-07-25T12:02:06.167Z,6.60
2022-07-25T12:03:07.053Z,7.60
2022-07-25T12:04:07.880Z,5.30
2022-07-25T12:05:08.699Z,11.40
2022-07-25T12:06:09.529Z,13.80
2022-07-25T12:07:10.357Z,5.20
2022-07-25T12:08:11.192Z,5.80
2022-07-25T12:09:16.346Z,7.40
2022-07-25T12:10:13.734Z,8.50
2022-07-25T12:11:13.562Z,6.30
2022-07-25T12:12:14.413Z,6.70
2022-07-25T12:13:15.250Z,7.50
2022-07-25T12:14:16.080Z,6.00
2022-07-25T12:15:16.908Z,6.90
2022-07-25T12:16:17.765Z,6.10
2022-07-25T12:17:18.560Z,5.60
2022-07-25T12:18:19.396Z,7.20
2022-07-25T12:19:20.223Z,5.20
2022-07-25T12:20:21.059Z,6.00
2022-07-25T12:21:21.881Z,5.20
2022-07-25T12:22:22.706Z,6.10
2022-07-25T12:23:23.558Z,6.30
2022-07-25T12:24:24.386Z,5.40
2022-07-25T12:25:30.455Z,6.70
2022-07-25T12:26:26.933Z,6.20
2022-07-25T12:27:26.756Z,5.10
2022-07-25T12:28:27.595Z,5.40
2022-07-25T12:29:28.418Z,5.10
2022-07-25T12:30:29.355Z,4.50
2022-07-25T12:31:30.230Z,6.80
2022-07-25T12:32:31.007Z,5.90
2022-07-25T12:33:31.833Z,4.70
2022-07-25T12:34:32.663Z,4.60
2022-07-25T12:35:33.497Z,7.50
2022-07-25T12:36:34.320Z,6.90
2022-07-25T12:37:35.155Z,5.00
2022-07-25T12:38:35.990Z,5.80
2022-07-25T12:39:36.808Z,7.40
2022-07-25T12:40:37.636Z,5.60
2022-07-25T12:41:38.457Z,3.80
2022-07-25T12:42:39.285Z,5.80
2022-07-25T12:43:40.125Z,5.20
2022-07-25T12:44:40.955Z,5.10
2022-07-25T12:45:41.815Z,4.90
2022-07-25T12:46:48.794Z,3.90
2022-07-25T12:47:44.324Z,4.00
2022-07-25T12:48:44.291Z,4.80
2022-07-25T12:49:45.088Z,4.60
2022-07-25T12:50:45.921Z,4.70
2022-07-25T12:51:46.753Z,4.90
2022-07-25T12:52:47.576Z,4.30
2022-07-25T12:53:48.416Z,5.70
2022-07-25T12:54:49.245Z,5.40
2022-07-25T12:55:49.795Z,4.80
2022-07-25T12:56:50.642Z,4.90
2022-07-25T12:57:51.478Z,5.20
2022-07-25T12:58:52.303Z,9.40
2022-07-25T12:59:53.123Z,4.10
2022-07-25T13:00:58.076Z,6.10
2022-07-25T13:01:55.741Z,5.00
2022-07-25T13:02:55.618Z,5.80
2022-07-25T13:03:56.415Z,4.50
2022-07-25T13:04:57.243Z,5.00
2022-07-25T13:05:58.073Z,3.90
2022-07-25T13:06:58.899Z,16.60
2022-07-25T13:07:59.729Z,8.60
2022-07-25T13:09:00.560Z,6.00
2022-07-25T13:10:01.565Z,6.70
2022-07-25T13:11:02.378Z,5.50
2022-07-25T13:12:03.195Z,6.90
2022-07-25T13:13:04.052Z,7.20
2022-07-25T13:14:04.865Z,5.00
2022-07-25T13:15:05.686Z,4.80
2022-07-25T13:16:06.570Z,5.00
2022-07-25T13:17:07.448Z,7.10
2022-07-25T13:18:08.322Z,5.00
2022-07-25T13:19:09.762Z,6.60
2022-07-25T13:20:09.802Z,5.30